Time;durP1;ratioP1;P1;durP2;ratioP2;P2;SDS_P1;SDS_P2;PMS_P1;PMS_P2;Temp;Humidity;BMP_temperature;BMP_pressure;BME280_temperature;BME280_humidity;BME280_pressure;Samples;Min_cycle;Max_cycle;Signal;HPM_P1;HPM_P2
2023/08/03 00:00:43;;;;;;;4.63;0.77;;;;;;;18.50;100.00;98928.97;5035478;28;20572;-70
2023/08/03 00:03:09;;;;;;;4.80;0.80;;;;;;;18.48;100.00;98925.84;5035622;28;20474;-70
2023/08/03 00:05:37;;;;;;;4.73;0.80;;;;;;;18.50;100.00;98934.47;5035256;28;20990;-71
2023/08/03 00:08:04;;;;;;;5.00;0.80;;;;;;;18.48;100.00;98926.63;5035771;28;20445;-70
2023/08/03 00:10:32;;;;;;;9.23;0.90;;;;;;;18.50;100.00;98928.97;5034984;28;20521;-71
2023/08/03 00:12:59;;;;;;;4.57;0.80;;;;;;;18.48;100.00;98932.13;5035553;28;21005;-70
2023/08/03 00:15:26;;;;;;;4.73;0.70;;;;;;;18.48;100.00;98929.38;5034891;28;20491;-70
2023/08/03 00:17:52;;;;;;;5.30;0.83;;;;;;;18.46;100.00;98923.53;5035182;28;20515;-70
2023/08/03 00:20:19;;;;;;;6.50;0.80;;;;;;;18.43;100.00;98926.25;5035357;28;20483;-70
2023/08/03 00:22:47;;;;;;;4.60;0.60;;;;;;;18.44;100.00;98928.59;5035057;28;20534;-70
2023/08/03 00:25:14;;;;;;;4.93;0.90;;;;;;;18.37;100.00;98936.81;5035085;28;20463;-70
2023/08/03 00:27:40;;;;;;;4.80;0.80;;;;;;;18.38;100.00;98952.91;5035294;28;20435;-70
2023/08/03 00:30:08;;;;;;;5.77;0.63;;;;;;;18.40;100.00;98942.31;5035350;28;20530;-70
2023/08/03 00:32:34;;;;;;;4.67;0.63;;;;;;;18.41;100.00;98954.84;5034992;28;20943;-70
2023/08/03 00:35:01;;;;;;;4.50;0.53;;;;;;;18.40;100.00;98947.00;5034996;28;20459;-70
2023/08/03 00:37:28;;;;;;;4.70;0.70;;;;;;;18.41;100.00;98935.66;5034741;28;20435;-70
2023/08/03 00:39:56;;;;;;;4.93;0.90;;;;;;;18.41;100.00;98943.88;5034610;28;20487;-70
2023/08/03 00:42:23;;;;;;;4.90;0.70;;;;;;;18.45;100.00;98951.31;5034698;28;20513;-70
2023/08/03 00:44:49;;;;;;;5.00;0.93;;;;;;;18.46;100.00;98955.63;5034654;28;20463;-70
2023/08/03 00:47:16;;;;;;;4.77;0.70;;;;;;;18.47;100.00;98968.16;5034611;28;20481;-70
2023/08/03 00:49:43;;;;;;;4.73;1.00;;;;;;;18.46;100.00;98947.38;5034807;28;20522;-70
2023/08/03 00:52:09;;;;;;;4.50;0.80;;;;;;;18.50;100.00;98937.19;5034565;28;20447;-70
2023/08/03 00:54:37;;;;;;;4.60;0.60;;;;;;;18.51;100.00;98947.78;5034436;28;20522;-70
2023/08/03 00:57:06;;;;;;;4.77;0.70;;;;;;;18.52;100.00;98949.34;5034410;28;20524;-70
2023/08/03 00:59:33;;;;;;;4.50;0.60;;;;;;;18.55;100.00;98953.25;5033960;28;20925;-70
2023/08/03 01:01:59;;;;;;;4.60;0.70;;;;;;;18.56;100.00;98954.84;5034306;28;20511;-70
2023/08/03 01:04:26;;;;;;;5.63;0.80;;;;;;;18.54;100.00;98954.44;5033808;28;20521;-70
2023/08/03 01:06:53;;;;;;;4.30;0.60;;;;;;;18.52;100.00;98956.78;5034944;28;20525;-70
2023/08/03 01:09:19;;;;;;;4.97;0.77;;;;;;;18.53;100.00;98956.41;5034295;28;20828;-70
2023/08/03 01:11:47;;;;;;;7.37;0.83;;;;;;;18.47;100.00;98957.22;5033853;28;20538;-70
2023/08/03 01:14:15;;;;;;;4.50;0.70;;;;;;;18.46;100.00;98953.69;5033970;28;20942;-70
2023/08/03 01:16:42;;;;;;;5.37;0.90;;;;;;;18.44;100.00;98955.25;5034036;28;20917;-70
2023/08/03 01:19:10;;;;;;;7.57;0.80;;;;;;;18.47;100.00;98970.91;5034289;28;20435;-70
2023/08/03 01:21:38;;;;;;;6.73;0.93;;;;;;;18.48;100.00;98975.22;5034032;28;20481;-70
2023/08/03 01:24:06;;;;;;;5.23;0.93;;;;;;;18.43;100.00;98972.88;5033939;28;20490;-70
2023/08/03 01:26:33;;;;;;;4.60;0.63;;;;;;;18.41;100.00;98981.47;5033916;28;20459;-70
2023/08/03 01:28:59;;;;;;;4.97;0.90;;;;;;;18.39;100.00;98984.63;5033915;28;20526;-70
2023/08/03 01:31:26;;;;;;;7.20;1.30;;;;;;;18.36;100.00;98981.88;5033862;28;20485;-70
2023/08/03 01:33:54;;;;;;;4.60;0.80;;;;;;;18.34;100.00;98984.25;5033805;28;20493;-70
2023/08/03 01:36:20;;;;;;;4.63;0.60;;;;;;;18.30;100.00;98981.50;5033717;28;20498;-70
2023/08/03 01:38:54;;;;;;;6.80;1.20;;;;;;;18.31;100.00;98991.28;5033535;28;20963;-70
2023/08/03 01:41:23;;;;;;;4.57;0.70;;;;;;;18.28;100.00;98986.59;5034062;28;20477;-70
2023/08/03 01:44:18;;;;;;;5.90;0.97;;;;;;;18.25;100.00;98983.84;5034312;28;20447;-70
2023/08/03 01:46:45;;;;;;;5.43;0.77;;;;;;;18.22;100.00;98996.38;5033863;28;20502;-70
2023/08/03 01:49:11;;;;;;;4.47;0.77;;;;;;;18.21;100.00;98997.56;5034030;28;20439;-70
2023/08/03 01:51:40;;;;;;;5.20;0.87;;;;;;;18.20;100.00;99009.69;5033561;28;20526;-70
2023/08/03 01:54:06;;;;;;;4.83;0.60;;;;;;;18.14;100.00;99011.25;5033896;28;20497;-70
2023/08/03 01:56:34;;;;;;;4.67;0.90;;;;;;;18.13;100.00;99006.94;5033825;28;20551;-70
2023/08/03 01:59:01;;;;;;;5.57;0.87;;;;;;;18.10;100.00;99016.72;5034088;28;20449;-70
2023/08/03 02:01:28;;;;;;;6.03;1.33;;;;;;;18.09;100.00;99022.59;5033158;28;21089;-73
2023/08/03 02:03:54;;;;;;;7.17;1.30;;;;;;;18.06;100.00;99026.91;5033699;28;20449;-70
2023/08/03 02:06:21;;;;;;;5.13;1.03;;;;;;;18.10;100.00;99013.19;5033758;28;20840;-69
2023/08/03 02:08:48;;;;;;;7.60;1.03;;;;;;;18.12;100.00;99019.09;5055389;22;20927;-72
2023/08/03 02:11:15;;;;;;;4.80;0.70;;;;;;;18.08;100.00;99018.28;5053409;28;20439;-73
2023/08/03 02:13:43;;;;;;;4.53;0.60;;;;;;;18.09;100.00;99020.63;5053007;28;20493;-72
2023/08/03 02:16:10;;;;;;;5.17;0.60;;;;;;;18.11;100.00;99028.47;5053814;28;20544;-72
2023/08/03 02:18:38;;;;;;;4.93;0.87;;;;;;;18.09;100.00;99017.88;5057783;28;20442;-72
2023/08/03 02:21:05;;;;;;;4.93;0.90;;;;;;;18.12;100.00;99021.81;5056897;28;20907;-72
2023/08/03 02:23:32;;;;;;;6.83;1.40;;;;;;;18.15;100.00;99012.81;5056879;28;20926;-72
2023/08/03 02:25:59;;;;;;;5.57;0.90;;;;;;;18.14;100.00;99017.50;5057387;28;20543;-72
2023/08/03 02:28:25;;;;;;;4.77;1.07;;;;;;;18.17;100.00;99013.22;5057267;28;20529;-72
2023/08/03 02:30:53;;;;;;;8.83;1.07;;;;;;;18.19;100.00;99010.06;5057095;28;20522;-72
2023/08/03 02:33:20;;;;;;;5.00;0.97;;;;;;;18.21;100.00;99010.47;5057154;28;20448;-72
2023/08/03 02:35:46;;;;;;;5.53;1.00;;;;;;;18.20;100.00;99009.69;5056761;28;20831;-72
2023/08/03 02:38:13;;;;;;;4.60;0.90;;;;;;;18.25;100.00;99009.31;5056882;28;20438;-72
2023/08/03 02:40:39;;;;;;;5.60;1.00;;;;;;;18.28;100.00;99016.75;5057022;28;20535;-73
2023/08/03 02:43:06;;;;;;;4.43;0.70;;;;;;;18.32;100.00;99012.03;5057418;28;20794;-72
2023/08/03 02:45:33;;;;;;;4.60;0.83;;;;;;;18.35;100.00;99015.94;5056893;28;20545;-72
2023/08/03 02:48:01;;;;;;;5.07;1.03;;;;;;;18.33;100.00;99013.63;5056809;28;20466;-72
2023/08/03 02:50:27;;;;;;;4.90;1.10;;;;;;;18.33;100.00;99015.56;5056677;28;20950;-73
2023/08/03 02:52:54;;;;;;;4.50;0.83;;;;;;;18.36;100.00;99001.84;5057194;28;20440;-73
2023/08/03 02:55:20;;;;;;;4.87;0.87;;;;;;;18.39;100.00;99000.28;5056640;28;20516;-73
2023/08/03 02:57:47;;;;;;;4.67;0.80;;;;;;;18.38;100.00;99001.47;5056587;28;20861;-73
2023/08/03 03:00:14;;;;;;;6.03;1.00;;;;;;;18.40;100.00;99005.38;5056551;28;20482;-73
2023/08/03 03:02:41;;;;;;;5.07;1.30;;;;;;;18.39;100.00;99006.56;5056847;28;20477;-73
2023/08/03 03:05:09;;;;;;;4.43;0.70;;;;;;;18.37;100.00;99002.63;5056351;28;20547;-73
2023/08/03 03:07:36;;;;;;;5.60;1.23;;;;;;;18.35;100.00;99011.25;5056399;28;20442;-72
2023/08/03 03:10:03;;;;;;;4.83;0.90;;;;;;;18.32;100.00;99001.06;5055934;28;21024;-73
2023/08/03 03:12:29;;;;;;;6.43;1.40;;;;;;;18.34;100.00;99004.22;5056087;28;20521;-72
2023/08/03 03:14:56;;;;;;;8.43;1.13;;;;;;;18.30;100.00;99000.69;5055769;28;21052;-72
2023/08/03 03:17:23;;;;;;;5.93;1.10;;;;;;;18.30;100.00;99008.13;5056745;28;20443;-72
2023/08/03 03:19:49;;;;;;;6.77;1.30;;;;;;;18.29;100.00;99001.09;5056180;28;20848;-72
2023/08/03 03:22:17;;;;;;;5.30;1.20;;;;;;;18.23;100.00;98992.44;5056581;28;20450;-72
2023/08/03 03:24:44;;;;;;;4.60;0.83;;;;;;;18.18;100.00;99001.06;5055804;28;21029;-72
2023/08/03 03:27:11;;;;;;;5.00;1.10;;;;;;;18.20;100.00;99006.16;5055931;28;20446;-72
2023/08/03 03:29:37;;;;;;;4.70;0.80;;;;;;;18.14;100.00;99005.75;5056046;28;20457;-72
2023/08/03 03:32:04;;;;;;;4.80;0.97;;;;;;;18.14;100.00;99003.00;5055854;28;20462;-72
2023/08/03 03:34:31;;;;;;;5.50;1.00;;;;;;;18.15;100.00;99008.13;5055931;28;20446;-73
2023/08/03 03:36:58;;;;;;;6.70;1.40;;;;;;;18.16;100.00;99003.44;5055625;28;20989;-73
2023/08/03 03:39:26;;;;;;;6.70;1.10;;;;;;;18.13;100.00;98999.50;5056158;28;20446;-72
2023/08/03 03:41:52;;;;;;;4.50;0.60;;;;;;;18.18;100.00;98997.53;5055879;28;20478;-72
2023/08/03 03:44:19;;;;;;;8.10;0.90;;;;;;;18.15;100.00;99004.59;5055885;28;20470;-72
2023/08/03 03:46:45;;;;;;;5.40;1.20;;;;;;;18.15;100.00;98993.66;5055715;28;20458;-72
2023/08/03 03:49:12;;;;;;;5.67;1.23;;;;;;;18.15;100.00;99002.66;5055846;28;20533;-72
2023/08/03 03:51:39;;;;;;;5.27;1.37;;;;;;;18.20;100.00;99000.69;5055871;28;20449;-72
2023/08/03 03:54:05;;;;;;;4.90;1.00;;;;;;;18.24;100.00;99005.00;5055633;28;20465;-72
2023/08/03 03:56:33;;;;;;;5.57;1.10;;;;;;;18.28;100.00;98999.50;5055534;28;20459;-72
2023/08/03 03:59:00;;;;;;;10.00;1.20;;;;;;;18.31;100.00;98999.50;5055417;28;20441;-72
2023/08/03 04:01:26;;;;;;;4.90;0.80;;;;;;;18.33;100.00;99010.09;5055734;28;20486;-72
2023/08/03 04:03:53;;;;;;;5.97;1.27;;;;;;;18.34;100.00;98997.94;5055388;28;20431;-71
2023/08/03 04:06:19;;;;;;;6.10;1.40;;;;;;;18.38;100.00;99001.47;5055715;28;20520;-72
2023/08/03 04:08:46;;;;;;;4.47;0.70;;;;;;;18.41;100.00;98998.69;5055467;28;20537;-72
2023/08/03 04:11:13;;;;;;;5.93;1.10;;;;;;;18.44;100.00;98999.09;5055359;28;20419;-72
2023/08/03 04:13:40;;;;;;;4.93;0.97;;;;;;;18.42;100.00;98999.50;5055779;28;20524;-71
2023/08/03 04:16:07;;;;;;;5.10;0.93;;;;;;;18.48;100.00;98997.16;5055517;28;20470;-72
2023/08/03 04:18:35;;;;;;;5.30;0.90;;;;;;;18.48;100.00;98994.41;5054902;28;20438;-72
2023/08/03 04:21:19;;;;;;;5.57;1.10;;;;;;;18.51;100.00;98997.16;5055375;28;20540;-72
2023/08/03 04:23:46;;;;;;;5.10;1.00;;;;;;;18.55;100.00;99000.69;5053481;28;20457;-73
2023/08/03 04:26:12;;;;;;;4.90;0.90;;;;;;;18.57;100.00;99011.25;5055320;28;20489;-73
2023/08/03 04:28:42;;;;;;;8.30;1.43;;;;;;;18.64;100.00;99003.00;5055440;28;20439;-72
2023/08/03 04:31:09;;;;;;;5.57;1.03;;;;;;;18.70;99.43;99008.91;5054940;28;20439;-71
2023/08/03 04:33:35;;;;;;;5.20;1.00;;;;;;;18.72;99.64;99010.06;5054517;28;20525;-72
2023/08/03 04:36:02;;;;;;;7.67;1.30;;;;;;;18.75;100.00;99014.78;5054834;28;20458;-72
2023/08/03 04:38:28;;;;;;;5.87;0.97;;;;;;;18.80;98.97;99008.09;5054666;28;20482;-73
2023/08/03 04:40:55;;;;;;;5.10;0.97;;;;;;;18.84;98.54;99011.63;5054265;28;21066;-72
2023/08/03 04:43:22;;;;;;;6.53;1.47;;;;;;;18.85;98.89;98997.50;5054746;28;20442;-73
2023/08/03 04:45:50;;;;;;;6.73;0.90;;;;;;;18.81;98.55;98996.72;5054676;28;20884;-72
2023/08/03 04:48:16;;;;;;;12.43;1.50;;;;;;;18.87;96.87;99006.13;5054565;28;20465;-73
2023/08/03 04:50:43;;;;;;;4.90;0.90;;;;;;;18.92;98.05;99004.16;5054552;28;20529;-72
2023/08/03 04:53:09;;;;;;;5.47;0.90;;;;;;;18.89;97.83;98995.53;5054128;28;20442;-72
2023/08/03 04:55:36;;;;;;;5.43;1.27;;;;;;;18.96;96.39;99002.19;5054377;28;20450;-72
2023/08/03 04:58:03;;;;;;;6.80;1.03;;;;;;;19.03;94.62;98997.44;5054476;28;20499;-71
2023/08/03 05:00:29;;;;;;;8.30;1.13;;;;;;;19.06;93.83;98999.41;5054240;28;20581;-72
2023/08/03 05:02:57;;;;;;;7.87;1.23;;;;;;;19.10;93.54;99004.88;5054099;28;20956;-71
2023/08/03 05:05:24;;;;;;;8.10;1.20;;;;;;;19.14;93.38;98994.69;5054195;28;20545;-72
2023/08/03 05:07:50;;;;;;;4.40;0.70;;;;;;;19.13;94.40;99001.34;5054127;28;20510;-72
2023/08/03 05:10:17;;;;;;;5.10;0.90;;;;;;;19.13;93.12;98993.13;5054112;28;20533;-72
2023/08/03 05:12:44;;;;;;;6.27;1.00;;;;;;;19.22;93.74;99000.94;5053863;28;20537;-73
2023/08/03 05:15:10;;;;;;;5.37;1.10;;;;;;;19.33;92.40;98993.44;5054044;28;20545;-72
2023/08/03 05:17:37;;;;;;;7.13;1.40;;;;;;;19.44;91.86;98993.41;5054353;28;20470;-72
2023/08/03 05:20:06;;;;;;;5.43;1.30;;;;;;;19.55;90.92;98983.13;5054328;28;20470;-72
2023/08/03 05:22:33;;;;;;;8.43;1.43;;;;;;;19.63;91.90;98987.44;5053641;28;20569;-72
2023/08/03 05:24:59;;;;;;;6.00;1.27;;;;;;;19.67;89.83;98988.19;5054043;28;20462;-72
2023/08/03 05:27:26;;;;;;;7.20;0.83;;;;;;;19.75;90.12;98984.22;5053878;28;20500;-73
2023/08/03 05:29:53;;;;;;;4.83;0.83;;;;;;;19.77;89.23;98981.84;5053848;28;20522;-72
2023/08/03 05:32:19;;;;;;;6.63;1.13;;;;;;;19.78;88.88;98990.84;5053874;28;20449;-72
2023/08/03 05:34:46;;;;;;;5.03;0.80;;;;;;;19.78;89.33;98988.88;5053626;28;20565;-71
2023/08/03 05:37:16;;;;;;;8.20;1.07;;;;;;;19.78;89.87;98997.13;5053752;28;20816;-73
2023/08/03 05:39:42;;;;;;;10.87;1.57;;;;;;;19.78;86.82;98999.09;5053801;28;20530;-72
2023/08/03 05:42:12;;;;;;;4.50;0.77;;;;;;;19.80;88.01;98992.03;5053911;28;20504;-72
2023/08/03 05:44:39;;;;;;;4.63;0.83;;;;;;;19.84;86.91;98995.53;5053993;28;20469;-71
2023/08/03 05:47:06;;;;;;;5.20;1.00;;;;;;;19.86;86.84;98998.66;5054001;28;20446;-72
2023/08/03 05:49:32;;;;;;;5.93;0.93;;;;;;;19.95;86.84;99000.97;5053947;28;20442;-72
2023/08/03 05:51:59;;;;;;;6.43;1.00;;;;;;;20.03;86.55;98999.72;5053418;28;20484;-72
2023/08/03 05:54:27;;;;;;;7.60;0.90;;;;;;;20.23;84.89;98989.00;5053235;28;20897;-72
2023/08/03 05:56:54;;;;;;;5.13;0.97;;;;;;;20.38;83.50;99003.38;5053843;28;20878;-71
2023/08/03 05:59:23;;;;;;;4.67;0.80;;;;;;;20.42;82.51;98993.91;5053871;28;20434;-71
2023/08/03 06:01:51;;;;;;;5.70;0.83;;;;;;;20.42;84.41;99001.38;5053365;28;20576;-72
2023/08/03 06:04:19;;;;;;;4.60;0.60;;;;;;;20.44;83.01;99003.72;5053844;28;20518;-71
2023/08/03 06:06:46;;;;;;;4.63;0.80;;;;;;;20.40;82.68;99001.00;5053354;28;20508;-72
2023/08/03 06:09:13;;;;;;;6.50;1.30;;;;;;;20.33;83.00;99015.59;5053087;28;20464;-71
2023/08/03 06:11:42;;;;;;;4.83;0.87;;;;;;;20.40;81.33;99012.00;5053593;28;20469;-74
2023/08/03 06:14:12;;;;;;;4.40;0.77;;;;;;;20.32;83.05;99005.81;5054095;28;20466;-74
2023/08/03 06:16:40;;;;;;;5.30;0.93;;;;;;;20.36;83.19;99003.81;5053655;28;20454;-70
2023/08/03 06:19:10;;;;;;;5.00;0.73;;;;;;;20.41;81.24;99014.38;5053429;28;20496;-75
2023/08/03 06:21:37;;;;;;;6.67;1.10;;;;;;;20.42;80.86;99006.88;5053006;28;20888;-72
2023/08/03 06:24:03;;;;;;;4.80;0.73;;;;;;;20.49;80.37;99012.34;5053303;28;20797;-71
2023/08/03 06:26:33;;;;;;;4.93;0.83;;;;;;;20.60;78.72;99006.75;5053458;28;20545;-71
2023/08/03 06:29:01;;;;;;;4.47;0.70;;;;;;;20.61;79.66;99008.31;5053970;28;20497;-72
2023/08/03 06:31:34;;;;;;;4.30;0.60;;;;;;;20.63;78.96;99027.97;5053224;28;20434;-71
2023/08/03 06:34:02;;;;;;;4.40;0.60;;;;;;;20.71;82.17;99029.44;5053462;28;20436;-73
2023/08/03 06:36:29;;;;;;;6.43;1.00;;;;;;;20.82;79.39;99030.13;5053100;28;20520;-73
2023/08/03 06:38:56;;;;;;;4.80;0.60;;;;;;;20.91;77.87;99024.94;5053585;28;20446;-73
2023/08/03 06:41:27;;;;;;;4.47;0.83;;;;;;;20.94;77.81;99028.03;5052912;28;21086;-72
2023/08/03 06:43:55;;;;;;;5.13;0.80;;;;;;;20.96;76.06;99028.41;5053847;28;20506;-71
2023/08/03 06:46:25;;;;;;;9.53;0.97;;;;;;;21.04;75.57;99036.19;5052940;28;20458;-72
2023/08/03 06:48:52;;;;;;;5.83;0.70;;;;;;;21.06;75.56;99038.53;5052662;28;20439;-71
2023/08/03 06:51:18;;;;;;;4.77;0.77;;;;;;;20.99;75.76;99055.91;5052938;28;20462;-71
2023/08/03 06:53:46;;;;;;;4.77;0.77;;;;;;;20.99;77.07;99031.16;5052768;28;20443;-71
2023/08/03 06:56:13;;;;;;;5.70;0.87;;;;;;;20.97;75.17;99036.25;5053210;28;20549;-71
2023/08/03 06:58:39;;;;;;;9.70;1.17;;;;;;;20.88;76.40;99047.75;5052877;28;20442;-72
2023/08/03 07:01:06;;;;;;;5.17;0.93;;;;;;;20.91;77.49;99044.19;5052541;28;20476;-72
2023/08/03 07:03:34;;;;;;;6.00;0.90;;;;;;;20.94;74.59;99039.84;5055760;28;20488;-71
2023/08/03 07:06:03;;;;;;;4.50;0.70;;;;;;;20.91;74.88;99052.44;5056470;28;20546;-71
2023/08/03 07:08:29;;;;;;;5.27;0.90;;;;;;;21.03;74.94;99053.09;5056433;28;21008;-71
2023/08/03 07:10:56;;;;;;;4.80;0.83;;;;;;;21.09;75.09;99059.75;5056708;28;20442;-72
2023/08/03 07:13:23;;;;;;;4.80;0.80;;;;;;;21.09;74.84;99059.75;5056398;28;20491;-71
2023/08/03 07:15:49;;;;;;;4.40;0.70;;;;;;;21.09;75.28;99073.53;5056198;28;20524;-72
2023/08/03 07:18:16;;;;;;;4.50;0.90;;;;;;;21.03;74.67;99064.13;5038711;28;20438;-72
2023/08/03 07:20:44;;;;;;;5.30;0.73;;;;;;;20.99;75.35;99077.16;5056532;28;20989;-72
2023/08/03 07:23:10;;;;;;;4.10;0.50;;;;;;;20.96;75.11;99076.00;5056263;28;20568;-74
2023/08/03 07:25:37;;;;;;;5.60;0.60;;;;;;;20.89;79.11;99087.88;5056412;28;20524;-73
2023/08/03 07:28:04;;;;;;;10.03;0.87;;;;;;;20.83;76.71;99086.75;5056144;28;20797;-72
2023/08/03 07:30:31;;;;;;;4.23;0.57;;;;;;;20.84;76.20;99085.53;5056056;28;20969;-72
2023/08/03 07:32:57;;;;;;;7.83;1.17;;;;;;;20.83;76.32;99089.50;5056034;28;20436;-73
2023/08/03 07:35:24;;;;;;;4.50;0.70;;;;;;;20.97;75.53;99087.78;5055606;28;20829;-72
2023/08/03 07:37:52;;;;;;;5.93;0.70;;;;;;;21.11;73.48;99090.41;5056163;28;20521;-72
2023/08/03 07:40:18;;;;;;;5.53;0.90;;;;;;;21.22;72.80;99093.06;5055594;28;20481;-71
2023/08/03 07:42:45;;;;;;;6.20;0.63;;;;;;;21.24;73.91;99096.19;5056251;28;20506;-72
2023/08/03 07:45:12;;;;;;;4.40;0.53;;;;;;;21.31;73.18;99096.91;5056169;28;20494;-72
2023/08/03 07:47:38;;;;;;;9.30;0.93;;;;;;;21.32;73.10;99087.44;5055750;28;20508;-72
2023/08/03 07:50:06;;;;;;;4.20;0.60;;;;;;;21.44;73.22;99088.13;5055626;28;20473;-72
2023/08/03 07:52:33;;;;;;;4.73;0.70;;;;;;;21.53;72.41;99097.47;5056042;28;20803;-71
2023/08/03 07:55:01;;;;;;;4.37;0.73;;;;;;;21.67;71.94;99091.00;5055347;28;20511;-71
2023/08/03 07:57:28;;;;;;;4.10;0.50;;;;;;;21.79;72.07;99087.69;5055266;28;20442;-72
2023/08/03 07:59:55;;;;;;;4.57;0.60;;;;;;;21.97;71.42;99108.75;5055417;28;20447;-71
2023/08/03 08:02:22;;;;;;;5.43;0.70;;;;;;;21.99;70.85;99092.53;5055781;28;20588;-72
2023/08/03 08:04:50;;;;;;;4.70;0.70;;;;;;;21.92;72.14;99090.69;5055493;28;20541;-73
2023/08/03 08:07:17;;;;;;;4.57;0.87;;;;;;;21.84;73.47;99094.72;5055468;28;20444;-72
2023/08/03 08:09:44;;;;;;;4.10;0.50;;;;;;;21.79;71.06;99103.47;5083697;22;21035;-69
2023/08/03 08:12:12;;;;;;;4.17;0.53;;;;;;;21.75;71.58;99106.25;5075817;28;20436;-71
2023/08/03 08:14:39;;;;;;;6.80;0.90;;;;;;;21.57;73.45;99106.47;5073768;28;20937;-71
2023/08/03 08:17:06;;;;;;;4.90;0.73;;;;;;;21.44;71.76;99118.44;5074905;28;20477;-73
2023/08/03 08:19:32;;;;;;;4.17;0.53;;;;;;;21.48;72.71;99108.16;5074797;28;20499;-73
2023/08/03 08:21:59;;;;;;;4.30;0.50;;;;;;;21.56;73.88;99104.09;5075265;28;20482;-72
2023/08/03 08:24:25;;;;;;;6.30;0.87;;;;;;;21.68;70.06;99109.09;5074737;28;20996;-71
2023/08/03 08:26:52;;;;;;;6.50;0.50;;;;;;;21.81;71.29;99118.38;5074934;28;20444;-69
2023/08/03 08:29:20;;;;;;;4.00;0.40;;;;;;;21.90;70.28;99118.66;5075023;28;20445;-71
2023/08/03 08:31:47;;;;;;;4.30;0.53;;;;;;;21.83;71.95;99109.72;5074592;28;21013;-71
2023/08/03 08:34:13;;;;;;;4.90;0.80;;;;;;;21.84;71.66;99120.31;5075450;28;20515;-69
2023/08/03 08:36:40;;;;;;;4.50;0.90;;;;;;;21.87;69.14;99113.97;5075091;28;20549;-71
2023/08/03 08:39:07;;;;;;;4.40;0.63;;;;;;;22.00;69.85;99121.69;5074375;28;20520;-72
2023/08/03 08:41:39;;;;;;;6.20;0.50;;;;;;;22.07;67.76;99114.09;5074305;28;20528;-71
2023/08/03 08:44:05;;;;;;;4.30;0.60;;;;;;;22.13;66.73;99115.25;5074368;28;20506;-72
2023/08/03 08:46:33;;;;;;;4.00;0.47;;;;;;;22.16;68.78;99122.66;5074191;28;20965;-71
2023/08/03 08:49:00;;;;;;;5.77;0.60;;;;;;;22.14;69.83;99129.81;5074541;28;20448;-69
2023/08/03 08:51:28;;;;;;;4.10;0.43;;;;;;;22.25;67.94;99126.91;5074415;28;20440;-69
2023/08/03 08:53:54;;;;;;;4.40;0.70;;;;;;;22.39;67.83;99132.97;5074424;28;20439;-73
2023/08/03 08:56:21;;;;;;;4.40;0.60;;;;;;;22.42;67.88;99125.84;5074666;28;21043;-70
2023/08/03 08:58:48;;;;;;;4.17;0.40;;;;;;;22.46;69.38;99123.81;5074387;28;20525;-71
2023/08/03 09:01:15;;;;;;;4.97;0.60;;;;;;;22.56;69.82;99125.63;5075034;28;20858;-71
2023/08/03 09:03:51;;;;;;;4.03;0.40;;;;;;;22.62;67.37;99131.44;5074374;28;20489;-71
2023/08/03 09:06:20;;;;;;;4.10;0.40;;;;;;;22.75;68.57;99137.94;5074079;28;20489;-71
2023/08/03 09:08:52;;;;;;;5.47;1.00;;;;;;;22.85;66.14;99134.25;5074073;28;20542;-71
2023/08/03 09:11:19;;;;;;;4.20;0.60;;;;;;;22.92;67.15;99136.91;5074179;28;20433;-71
2023/08/03 09:13:48;;;;;;;4.10;0.40;;;;;;;23.07;64.53;99148.50;5073789;28;20524;-71
2023/08/03 09:16:26;;;;;;;4.30;0.50;;;;;;;23.13;63.73;99149.59;5073964;28;20824;-69
2023/08/03 09:18:54;;;;;;;4.40;0.50;;;;;;;23.14;62.96;99140.09;5073667;28;20445;-71
2023/08/03 09:21:21;;;;;;;5.10;0.70;;;;;;;23.14;66.09;99156.66;5074246;28;20524;-69
2023/08/03 09:23:48;;;;;;;4.57;0.40;;;;;;;23.09;63.97;99148.09;5074427;28;20968;-70
2023/08/03 09:26:14;;;;;;;4.20;0.50;;;;;;;23.02;65.98;99149.00;5073818;28;20551;-69
2023/08/03 09:28:42;;;;;;;4.10;0.40;;;;;;;22.89;68.23;99167.34;5073507;28;20426;-70
2023/08/03 09:31:10;;;;;;;4.00;0.40;;;;;;;22.76;65.47;99164.38;5073725;28;20478;-71
2023/08/03 09:33:38;;;;;;;4.40;0.50;;;;;;;22.71;66.42;99170.38;5074658;28;20472;-71
2023/08/03 09:36:10;;;;;;;4.10;0.50;;;;;;;22.61;65.89;99174.06;5074226;28;20544;-70
2023/08/03 09:38:37;;;;;;;4.00;0.40;;;;;;;22.44;66.62;99175.09;5074014;28;20512;-71
2023/08/03 09:41:04;;;;;;;4.30;0.53;;;;;;;22.34;66.80;99172.06;5073835;28;20476;-70
2023/08/03 09:43:31;;;;;;;4.10;0.50;;;;;;;22.30;68.41;99159.53;5073257;28;21048;-70
2023/08/03 09:45:58;;;;;;;4.10;0.43;;;;;;;22.28;68.11;99173.75;5073499;28;20453;-70
2023/08/03 09:48:26;;;;;;;4.00;0.40;;;;;;;22.33;66.80;99170.53;5073525;28;20536;-71
2023/08/03 09:50:54;;;;;;;4.00;0.40;;;;;;;22.52;69.18;99160.00;5073488;28;20440;-70
2023/08/03 09:53:25;;;;;;;4.10;0.50;;;;;;;22.84;66.86;99173.31;5074127;28;20449;-70
2023/08/03 09:55:58;;;;;;;4.00;0.40;;;;;;;23.02;66.48;99173.06;5073298;28;20457;-70
2023/08/03 09:58:30;;;;;;;4.10;0.40;;;;;;;23.19;65.33;99169.22;5073499;28;20784;-70
2023/08/03 10:00:59;;;;;;;4.10;0.50;;;;;;;23.22;64.45;99182.19;5073782;28;20943;-70
2023/08/03 10:03:28;;;;;;;4.10;0.47;;;;;;;23.25;64.87;99167.53;5072949;28;20978;-71
2023/08/03 10:06:01;;;;;;;4.03;0.40;;;;;;;23.30;62.93;99158.75;5073337;28;20538;-70
2023/08/03 10:08:35;;;;;;;4.00;0.40;;;;;;;23.38;62.81;99176.78;5073175;28;20528;-71
2023/08/03 10:11:03;;;;;;;4.00;0.50;;;;;;;23.28;63.04;99163.13;5073372;28;20504;-71
2023/08/03 10:13:33;;;;;;;4.00;0.40;;;;;;;23.21;63.57;99166.03;5073734;28;20526;-71
2023/08/03 10:16:01;;;;;;;4.10;0.43;;;;;;;23.08;64.14;99168.63;5073625;28;21072;-71
2023/08/03 10:18:28;;;;;;;7.83;0.67;;;;;;;22.75;65.02;99176.59;5073680;28;20468;-71
2023/08/03 10:20:56;;;;;;;4.10;0.60;;;;;;;22.78;66.42;99166.72;5072985;28;20975;-70
2023/08/03 10:23:22;;;;;;;4.27;0.63;;;;;;;22.88;64.55;99179.56;5073693;28;20496;-71
2023/08/03 10:25:56;;;;;;;7.67;0.60;;;;;;;23.05;62.14;99178.53;5072879;28;21059;-71
2023/08/03 10:28:24;;;;;;;4.00;0.47;;;;;;;23.22;62.69;99179.44;5073619;28;20482;-71
2023/08/03 10:31:19;;;;;;;4.30;0.60;;;;;;;23.29;60.52;99182.06;5073167;28;20967;-71
2023/08/03 10:34:24;;;;;;;3.90;0.40;;;;;;;23.18;61.19;99189.75;5027113;28;20929;-70
2023/08/03 10:36:53;;;;;;;6.00;0.70;;;;;;;23.06;63.09;99193.09;5073221;28;20979;-70
2023/08/03 10:39:47;;;;;;;3.93;0.40;;;;;;;22.67;67.82;99194.50;5077225;28;20452;-71
2023/08/03 10:42:23;;;;;;;4.20;0.50;;;;;;;22.47;68.65;99185.31;5077015;28;20997;-71
2023/08/03 10:44:50;;;;;;;5.43;0.57;;;;;;;22.52;69.66;99171.03;5076825;28;20564;-71
2023/08/03 10:47:25;;;;;;;4.00;0.40;;;;;;;22.74;70.14;99180.56;5076865;28;20774;-70
2023/08/03 10:49:53;;;;;;;4.30;0.57;;;;;;;22.90;68.83;99179.97;5076819;28;20452;-71
2023/08/03 10:52:26;;;;;;;4.10;0.47;;;;;;;23.10;67.87;99177.25;5077083;28;20437;-71
2023/08/03 10:54:53;;;;;;;4.10;0.50;;;;;;;23.13;66.13;99184.72;5076681;28;20552;-70
2023/08/03 10:57:24;;;;;;;4.30;0.60;;;;;;;23.08;66.33;99197.03;5077114;28;20443;-71
2023/08/03 10:59:52;;;;;;;4.00;0.53;;;;;;;22.92;67.15;99203.19;5076683;28;20421;-70
2023/08/03 11:02:21;;;;;;;4.20;0.60;;;;;;;22.61;70.68;99198.91;5076529;28;20476;-71
2023/08/03 11:04:50;;;;;;;4.20;0.50;;;;;;;22.73;72.55;99203.84;5076509;28;21039;-70
2023/08/03 11:07:20;;;;;;;4.10;0.53;;;;;;;22.87;67.07;99197.34;5076186;28;20491;-70
2023/08/03 11:09:48;;;;;;;4.20;0.57;;;;;;;22.89;65.88;99198.53;5076285;28;20456;-71
2023/08/03 11:12:16;;;;;;;4.00;0.50;;;;;;;22.89;66.09;99184.72;5076446;28;20806;-70
2023/08/03 11:14:47;;;;;;;4.30;0.50;;;;;;;22.96;64.80;99194.84;5076312;28;20452;-70
2023/08/03 11:17:15;;;;;;;4.20;0.60;;;;;;;23.09;64.48;99186.75;5076653;28;20768;-70
2023/08/03 11:19:42;;;;;;;4.17;0.60;;;;;;;23.29;65.53;99189.59;5075934;28;20441;-70
2023/08/03 11:22:09;;;;;;;4.00;0.50;;;;;;;23.70;64.31;99197.53;5076281;28;20445;-70
2023/08/03 11:24:35;;;;;;;4.30;0.50;;;;;;;24.09;63.29;99193.22;5076081;28;20442;-68
2023/08/03 11:27:04;;;;;;;4.50;0.73;;;;;;;24.40;61.58;99188.25;5075797;28;20480;-70
2023/08/03 11:29:31;;;;;;;3.90;0.40;;;;;;;24.48;59.63;99205.47;5076468;28;20433;-70
2023/08/03 11:31:59;;;;;;;3.97;0.40;;;;;;;24.61;60.36;99184.19;5076218;28;20451;-70